Tiempo atmosférico en la estación meteorológica de Cieza, Murcia (265 m.)



Fecha
DESCASC
Temp. máxima en grados centígrados (hora)
DESCASC
Temp. mínima en grados centígrados (hora)
DESCASC
Temp. media en grados centígrados
DESCASC
Racha de viento máxima en m/sg (hora)
DESCASC
Velocidad máxima media en intervalos de 10 minutos(hora)
DESCASC
Precipitaciones diarias en mm
DESCASC
Precipitaciones de 00:00 a 06:00 en mm
DESCASC
Precipitaciones de 06:00 a 12:00 en mm
DESCASC
Precipitaciones de 12:00 a 18:00 en mm
DESCASC
Precipitaciones de 18:00 a 24:00 en mm
DESCASC
16-06-2019 26.4 (14:40) 14.8 (06:30) 20.6 9.17 (17:30) 5.56 (16:20) 0 0 0 0 0
15-06-2019 -- (--) -- (--) -- 8.89 (20:20) 5 (19:20) 0 0 0 0 0
14-06-2019 31.5 (17:10) 17.3 (04:40) 24.4 8.06 (19:10) 4.72 (19:50) 0.2 0.1 0.1 0 0
13-06-2019 27 (16:10) 17.6 (00:00) 22.3 10.28 (17:00) 6.39 (16:50) 0.2 0 0.1 0.1 0
12-06-2019 25.9 (15:30) 13 (00:00) 19.4 10.83 (17:20) 6.11 (17:20) 0 0 0 0 0
11-06-2019 29.7 (14:30) 13.1 (00:00) 21.4 12.5 (17:50) 7.5 (18:10) 0.3 0 0 0 0.3
10-06-2019 32 (17:00) 18.3 (00:00) 25.1 11.67 (18:30) 6.39 (18:30) 0 0 0 0 0
09-06-2019 30.5 (16:50) 16.3 (00:00) 23.4 7.78 (20:40) 5 (20:40) 0 0 0 0 0
08-06-2019 27 (12:40) 14.8 (00:00) 20.9 11.39 (16:40) 7.22 (16:40) 0 0 0 0 0
07-06-2019 31.2 (18:40) 13.3 (00:00) 22.3 10 (19:30) 6.11 (19:40) 0 0 0 0 0
06-06-2019 28.1 (15:40) 12.3 (00:00) 20.2 10.56 (19:10) 5.28 (17:10) 0 0 0 0 0
05-06-2019 27.9 (18:00) 14.6 (00:00) 21.3 12.78 (13:00) 7.5 (13:40) 0 0 0 0 0
04-06-2019 32.4 (16:30) 12.5 (00:00) 22.5 10.56 (19:30) 6.11 (22:50) 0 0 0 0 0
03-06-2019 31.4 (16:30) 11.8 (00:00) 21.6 9.72 (19:00) 5.28 (14:10) 0 0 0 0 0
02-06-2019 30.4 (16:10) 11.5 (00:00) 20.9 9.72 (19:30) 5.83 (18:30) 0 0 0 0 0
01-06-2019 28.3 (15:40) 11.1 (00:00) 19.7 10 (19:10) 5.83 (19:00) 0 0 0 0 0
31-05-2019 27 (15:20) 11.6 (00:00) 19.3 8.89 (17:40) 5.83 (18:30) 0 0 0 0 0
30-05-2019 26.2 (16:50) 10.2 (00:00) 18.2 9.17 (20:00) 4.72 (18:00) 0 0 0 0 0
29-05-2019 26.4 (15:50) 14 (00:00) 20.2 10.56 (17:40) 6.94 (17:40) 0 0 0 0 0
28-05-2019 28.6 (15:30) 14.1 (00:00) 21.4 10 (17:30) 6.39 (16:10) 0 0 0 0 0
27-05-2019 32.1 (17:30) 12.5 (00:00) 22.3 11.39 (20:00) 6.39 (20:00) 0 0 0 0 0
26-05-2019 27.5 (16:30) 11 (00:00) 19.3 8.61 (18:00) 5 (18:30) 0 0 0 0 0
25-05-2019 23.3 (19:50) 11.6 (00:00) 17.4 7.22 (23:50) 4.17 (23:50) 0 0 0 0 0
24-05-2019 24.5 (15:50) 13.6 (00:00) 19.1 12.22 (18:00) 7.78 (18:00) 2.9 0 0 0 2.9
23-05-2019 30.6 (17:20) 11.2 (00:00) 20.9 10.56 (18:20) 6.11 (19:40) 0 0 0 0 0
22-05-2019 27.4 (17:10) 11 (00:00) 19.2 10.28 (20:30) 5.83 (20:30) 0 0 0 0 0
21-05-2019 25.4 (15:30) 13.9 (07:30) 19.6 10.83 (17:30) 6.94 (17:20) 6.2 0 0 0.9 5.3

Gráficas

Temp. máximas Temp. mínimas Temp. medias Precipitaciones Rachas de viento máximas Velocidades máximas media en intervalos de 10 minutos

Datos horarios

Fecha y hora oficial Temperatura (ºC) Velocidad del viento (km/h) Dirección del viento Racha (km/h) Dirección de racha Precipitación (mm) Presión (hPa) Tendencia (hPa) Humedad (%)
2019-06-19 23:00:00 26.4 6 Sudeste 19 Sudeste 0 -- -- 36
2019-06-19 22:00:00 28.4 8 Sudeste 28 Sudeste 0 -- -- 34
2019-06-19 21:00:00 30.6 14 Sudeste 30 Sudeste 0 -- -- 33
2019-06-19 20:00:00 32.1 15 Este 30 Sudeste 0 -- -- 30
2019-06-19 19:00:00 33.5 17 Sudeste 28 Sudeste 0 -- -- 30
2019-06-19 18:00:00 34.1 12 Sudeste 25 Sudeste 0 -- -- 29
2019-06-19 17:00:00 35.2 8 Este 25 Sudeste 0 -- -- 29
2019-06-19 16:00:00 34.2 8 Sudeste 24 Sudeste 0 -- -- 31
2019-06-19 15:00:00 33.1 6 Norte 17 Oeste 0 -- -- 31
2019-06-19 14:00:00 31.8 6 Noroeste 18 Sudoeste 0 -- -- 34
2019-06-19 13:00:00 30.1 8 Oeste 21 Oeste 0 -- -- 37
2019-06-19 12:00:00 28.1 11 Oeste 19 Oeste 0 -- -- 45
2019-06-19 11:00:00 25.4 13 Oeste 19 Oeste 0 -- -- 50
2019-06-19 10:00:00 21.8 13 Oeste 18 Oeste 0 -- -- 62
2019-06-19 09:00:00 18.8 11 Oeste 18 Oeste 0 -- -- 70
2019-06-19 08:00:00 16.6 9 Oeste 14 Oeste 0 -- -- 77
2019-06-19 07:00:00 16.7 10 Oeste 15 Oeste 0 -- -- 77
2019-06-19 06:00:00 16.9 4 Oeste 12 Oeste 0 -- -- 76
2019-06-19 05:00:00 17.2 3 Nordeste 8 Nordeste 0 -- -- 71
2019-06-19 04:00:00 17 0 Calma 4 Este 0 -- -- 76
2019-06-19 03:00:00 16.9 2 Este 6 Este 0 -- -- 80
2019-06-19 02:00:00 17.9 0 Calma 5 Sudeste 0 -- -- 72
2019-06-19 01:00:00 20.3 5 Sudeste 15 Sudeste 0 -- -- 67
2019-06-19 00:00:00 21.1 12 Sudeste 24 Sudeste 0 -- -- 67
2019-06-18 23:00:00 22.4 14 Sudeste 30 Sudeste 0 -- -- 56
2019-06-18 22:00:00 24 20 Sudeste 30 Sudeste 0 -- -- 51
2019-06-18 21:00:00 26.5 14 Sudeste 33 Sudeste 0 -- -- 42
2019-06-18 20:00:00 28.1 18 Sudeste 38 Sudeste 0 -- -- 41
2019-06-18 19:00:00 29.1 18 Sudeste 37 Este 0 -- -- 41
2019-06-18 18:00:00 30.6 19 Este 36 Sudeste 0 -- -- 40
2019-06-18 17:00:00 30.9 19 Sudeste 39 Sudeste 0 -- -- 37
2019-06-18 16:00:00 31 17 Sudeste 35 Sudeste 0 -- -- 36
2019-06-18 15:00:00 30.1 19 Sudeste 39 Sudeste 0 -- -- 40
2019-06-18 14:00:00 29.3 17 Sudeste 34 Sudeste 0 -- -- 36
2019-06-18 13:00:00 28.3 16 Sudeste 27 Sudeste 0 -- -- 37
2019-06-18 12:00:00 26 15 Sudeste 23 Sudeste 0 -- -- 40
2019-06-18 11:00:00 23.4 0 Calma 10 Oeste 0 -- -- 49
2019-06-18 10:00:00 19.8 6 Oeste 14 Oeste 0 -- -- 57
2019-06-18 09:00:00 16.8 8 Oeste 13 Noroeste 0 -- -- 65
2019-06-18 08:00:00 14.5 0 Calma 9 Noroeste 0 -- -- 73
2019-06-18 07:00:00 14.6 5 Oeste 12 Oeste 0 -- -- 72
2019-06-18 06:00:00 15 8 Oeste 10 Oeste 0 -- -- 67
2019-06-18 05:00:00 15.8 5 Oeste 7 Noroeste 0 -- -- 65
2019-06-18 04:00:00 16.4 0 Calma 6 Este 0 -- -- 57
2019-06-18 03:00:00 16.7 0 Calma -- -- 0 -- -- 60
2019-06-18 02:00:00 18 0 Calma 19 Sudeste 0 -- -- 56
2019-06-18 01:00:00 20.3 12 Sudeste 19 Sudeste 0 -- -- 53
2019-06-18 00:00:00 20.9 11 Sudeste 26 Sudeste 0 -- -- 52
2019-06-17 23:00:00 21.8 17 Sudeste 31 Sudeste 0 -- -- 50
2019-06-17 22:00:00 23.5 19 Sudeste 33 Sudeste 0 -- -- 46
2019-06-17 21:00:00 26.2 18 Sudeste 36 Este 0 -- -- 38
2019-06-17 20:00:00 28.9 17 Sudeste 35 Sudeste 0 -- -- 34
2019-06-17 19:00:00 30.5 19 Sudeste 41 Este 0 -- -- 31
2019-06-17 18:00:00 31.8 17 Sudeste 35 Este 0 -- -- 29
2019-06-17 17:00:00 32.4 14 Sudeste 39 Sudeste 0 -- -- 28
2019-06-17 16:00:00 32.4 13 Sudeste 29 Sudeste 0 -- -- 26
2019-06-17 15:00:00 31.8 10 Este -- -- 0 -- -- 26
2019-06-17 14:00:00 30.1 8 Sudeste 19 Sudeste 0 -- -- 31
2019-06-17 13:00:00 28.8 4 Este 12 Sudeste 0 -- -- 36
2019-06-17 12:00:00 25.4 0 Calma 12 Sudoeste 0 -- -- 46
2019-06-17 11:00:00 21.3 9 Oeste 18 Oeste 0 -- -- 59
2019-06-17 10:00:00 18.2 10 Oeste 17 Noroeste 0 -- -- 70
2019-06-17 09:00:00 15.2 9 Oeste 16 Noroeste 0 -- -- 83
2019-06-17 08:00:00 13.5 12 Oeste 17 Oeste 0 -- -- 89
2019-06-17 07:00:00 12.5 11 Oeste 14 Oeste 0 -- -- 93
2019-06-17 06:00:00 13.8 5 Oeste 9 Oeste 0 -- -- 90
2019-06-17 05:00:00 13.8 0 Calma 9 Noroeste 0 -- -- 92
2019-06-17 04:00:00 14.4 0 Calma 4 Sudeste 0 -- -- 87
2019-06-17 03:00:00 14.8 0 Calma 3 Este 0 -- -- 90
2019-06-17 02:00:00 16 0 Calma 3 Este 0 -- -- 88
2019-06-17 01:00:00 16.6 0 Calma 4 Este 0 -- -- 81
2019-06-17 00:00:00 18.8 0 Calma 12 Sudeste 0 -- -- 71
2019-06-16 23:00:00 20 7 Sudeste 18 Sudeste 0 -- -- 70
2019-06-16 22:00:00 21 7 Sudeste 25 Sudeste 0 -- -- 64
2019-06-16 21:00:00 21.9 13 Sudeste 27 Sudeste 0 -- -- 60
2019-06-16 20:00:00 22.6 14 Sudeste 28 Sudeste 0 -- -- 55
2019-06-16 19:00:00 23 15 Sudeste 32 Este 0 -- -- 56
2019-06-16 18:00:00 23.7 15 Sudeste 33 Sudeste 0 -- -- 60
2019-06-16 17:00:00 23.3 14 Sudeste 29 Sudeste 0 -- -- 60
2019-06-16 16:00:00 24.4 16 Sudeste 30 Sudeste 0 -- -- 56
2019-06-16 15:00:00 25 16 Sudeste 26 Sudeste 0 -- -- 54
2019-06-16 14:00:00 25.4 9 Sudeste 30 Sudeste 0 -- -- 47
2019-06-16 13:00:00 24.6 13 Sudeste 23 Sudeste 0 -- -- 47
2019-06-16 12:00:00 23.5 10 Sudeste 18 Sudeste 0 -- -- 46
2019-06-16 11:00:00 23 5 Este 13 Este 0 -- -- 50
2019-06-16 10:00:00 19.5 3 Noroeste 10 Oeste 0 -- -- 61
2019-06-16 09:00:00 16.8 5 Oeste 11 Oeste 0 -- -- 66
2019-06-16 08:00:00 15.2 4 Oeste 12 Noroeste 0 -- -- 68
2019-06-16 07:00:00 15.1 8 Oeste 11 Oeste 0 -- -- 66
2019-06-16 06:00:00 15.4 7 Oeste 9 Oeste 0 -- -- 62
2019-06-16 05:00:00 17.8 5 Norte 12 Norte 0 -- -- 55
2019-06-16 04:00:00 17.1 2 Nordeste 8 Nordeste 0 -- -- 56
2019-06-16 03:00:00 16.9 0 Calma 5 Sudeste 0 -- -- 55
2019-06-16 02:00:00 18.3 0 Calma 5 Este 0 -- -- 50
2019-06-16 01:00:00 19.4 2 Este 19 Sudeste 0 -- -- 49
2019-06-16 00:00:00 21.7 9 Sudeste 20 Sudeste 0 -- -- 44
2019-06-15 23:00:00 22.8 14 Sudeste 29 Sudeste 0 -- -- 42
2019-06-15 22:00:00 25.2 13 Sudeste 24 Sudeste 0 -- -- 39
2019-06-15 21:00:00 27.3 13 Sudeste 32 Sudeste 0 -- -- 36
2019-06-15 20:00:00 28.7 16 Sudeste 28 Sudeste 0 -- -- 35
2019-06-15 19:00:00 31.3 8 Sudeste 22 Sudeste 0 -- -- 29
2019-06-15 18:00:00 31 9 Sudeste 22 Sudeste 0 -- -- 29
2019-06-15 17:00:00 29.9 6 Nordeste 15 Nordeste 0 -- -- 29
2019-06-15 16:00:00 29.5 2 Sur 16 Norte 0 -- -- 29
2019-06-15 15:00:00 28.1 5 Noroeste 20 Oeste 0 -- -- 31
2019-06-15 14:00:00 26.9 5 Noroeste 24 Norte 0 -- -- 35
2019-06-15 13:00:00 25.5 5 Noroeste 23 Norte 0 -- -- 37
2019-06-15 12:00:00 23.8 7 Noroeste 30 Norte 0 -- -- 40
2019-06-15 11:00:00 21.8 15 Norte 30 Norte 0 -- -- 41
2019-06-15 10:00:00 20.9 8 Noroeste 31 Norte 0 -- -- 42
2019-06-15 09:00:00 19.7 12 Norte -- -- -- -- -- 45
2019-06-15 08:00:00 17.2 8 Noroeste 16 Noroeste 0 -- -- 50
2019-06-15 07:00:00 16.7 5 Oeste 14 Oeste 0 -- -- 49
2019-06-15 06:00:00 18.2 3 Noroeste 19 Oeste 0 -- -- 46
2019-06-15 05:00:00 19.5 6 Noroeste 19 Oeste 0 -- -- 44
2019-06-15 04:00:00 20.3 10 Oeste 27 Oeste 0 -- -- 41
2019-06-15 03:00:00 21.4 10 Noroeste 26 Oeste 0 -- -- 40
2019-06-15 02:00:00 21.8 5 Noroeste 21 Oeste 0 -- -- 41
2019-06-15 01:00:00 22 9 Oeste 16 Oeste 0 -- -- 49
2019-06-15 00:00:00 23.2 5 Oeste 10 Oeste 0 -- -- 51
2019-06-14 23:00:00 24.3 3 Sudeste 18 Sudeste 0 -- -- 47
2019-06-14 22:00:00 25.7 8 Sudeste 22 Sudeste 0 -- -- 44
2019-06-14 21:00:00 27.3 13 Sudeste 28 Sudeste 0 -- -- 43
2019-06-14 20:00:00 29.1 14 Sudeste 29 Sudeste 0 -- -- 41
2019-06-14 19:00:00 30.6 12 Sudeste 28 Este 0 -- -- 40
2019-06-14 18:00:00 31.3 12 Sudeste 28 Sudeste 0 -- -- 40
2019-06-14 17:00:00 31.3 12 Sudeste 28 Este 0 -- -- 39
2019-06-14 16:00:00 30.8 9 Este 27 Este 0 -- -- 40
2019-06-14 15:00:00 30.1 8 Sudeste 18 Sudeste 0 -- -- 37
2019-06-14 14:00:00 28.7 3 Noroeste 15 Oeste 0 -- -- 40
2019-06-14 13:00:00 26.6 5 Noroeste 13 Norte 0 -- -- 44
2019-06-14 12:00:00 24.3 3 Oeste 11 Oeste 0 -- -- 56
2019-06-14 11:00:00 20.6 5 Oeste 11 Oeste 0 -- -- 70
2019-06-14 10:00:00 18.4 4 Oeste 13 Oeste 0 -- -- 81
2019-06-14 09:00:00 17.7 2 Noroeste 11 Norte 0.1 -- -- 84
2019-06-14 08:00:00 18 3 Oeste 14 Noroeste 0 -- -- 76
2019-06-14 07:00:00 18 0 Calma 8 Noroeste 0 -- -- 75
2019-06-14 06:00:00 18.1 3 Oeste 17 Sudoeste 0 -- -- 72
2019-06-14 05:00:00 17.3 6 Oeste 14 Oeste 0.1 -- -- 80
2019-06-14 04:00:00 18.6 3 Noroeste 12 Oeste 0 -- -- 70
2019-06-14 03:00:00 18.9 6 Oeste 19 Noroeste 0 -- -- 67
2019-06-14 02:00:00 18.8 8 Oeste 11 Oeste 0 -- -- 71
2019-06-14 01:00:00 18.6 0 Calma 11 Este 0 -- -- 72
2019-06-14 00:00:00 19.2 5 Este 18 Sudeste 0 -- -- 69
2019-06-13 23:00:00 20.3 6 Este 17 Sudeste 0 -- -- 61
2019-06-13 22:00:00 21 10 Sudeste 29 Sudeste 0 -- -- 57
2019-06-13 21:00:00 22.3 20 Sudeste 32 Sudeste 0 -- -- 55
2019-06-13 20:00:00 24.1 16 Sudeste 36 Este 0 -- -- 51
2019-06-13 19:00:00 25.1 15 Sudeste 33 Sudeste 0 -- -- 49
2019-06-13 18:00:00 25.5 18 Sudeste 35 Sudeste 0 -- -- 47
2019-06-13 17:00:00 25.7 21 Sudeste 37 Sudeste 0 -- -- 47
2019-06-13 16:00:00 26.7 18 Sudeste 33 Sudeste 0 -- -- 47
2019-06-13 15:00:00 25.9 17 Sudeste 30 Sudeste 0 -- -- 47
2019-06-13 14:00:00 25 14 Sudeste 25 Sudeste 0 -- -- 50
2019-06-13 13:00:00 24.3 8 Sudeste 18 Sudeste 0.1 -- -- 54
2019-06-13 12:00:00 22.7 0 Calma 14 Nordeste 0 -- -- 63
2019-06-13 11:00:00 20.5 4 Este 14 Sudeste 0 -- -- 73
2019-06-13 10:00:00 19.4 0 Calma 8 Este 0.1 -- -- 82
2019-06-13 09:00:00 18.7 0 Calma -- -- 0 -- -- 81
2019-06-13 08:00:00 18 0 Calma -- -- 0 -- -- 84
2019-06-13 07:00:00 17.9 4 Oeste 7 Oeste 0 -- -- 83
2019-06-13 06:00:00 18.1 0 Calma 6 Noroeste 0 -- -- 81
2019-06-13 05:00:00 17.9 0 Calma 6 Oeste 0 -- -- 84
2019-06-13 04:00:00 18 0 Calma 8 Sudeste 0 -- -- 83
2019-06-13 03:00:00 18 3 Sudeste 11 Sudeste 0 -- -- 83
2019-06-13 02:00:00 17.9 7 Sudeste 16 Sudeste 0 -- -- 83
2019-06-13 01:00:00 17.8 12 Sudeste 23 Sudeste 0 -- -- 82
2019-06-13 00:00:00 17.6 12 Sudeste 31 Sudeste 0 -- -- 83
2019-06-12 23:00:00 17.5 18 Sudeste 30 Sudeste 0 -- -- 83
2019-06-12 22:00:00 18.5 15 Sudeste 32 Sudeste 0 -- -- 75
2019-06-12 21:00:00 19.7 17 Sudeste 34 Sudeste 0 -- -- 68
2019-06-12 20:00:00 21.3 19 Sudeste 38 Sudeste 0 -- -- 61
2019-06-12 19:00:00 22.9 20 Sudeste 39 Sudeste 0 -- -- 51
2019-06-12 18:00:00 23.6 20 Sudeste 39 Sudeste 0 -- -- 44
2019-06-12 17:00:00 24.8 17 Sudeste 36 Sudeste 0 -- -- 41
2019-06-12 16:00:00 25.3 21 Sudeste 34 Sudeste 0 -- -- 40
2019-06-12 15:00:00 24.8 11 Este 28 Este 0 -- -- 40
2019-06-12 14:00:00 23.7 9 Sudeste 24 Este 0 -- -- 41
2019-06-12 13:00:00 22.7 9 Sudeste 19 Este 0 -- -- 42
2019-06-12 12:00:00 21.5 6 Este 18 Este 0 -- -- 50
2019-06-12 11:00:00 20 8 Sudeste 20 Sudeste 0 -- -- 58
2019-06-12 10:00:00 17.7 4 Norte -- -- -- -- -- 72
2019-06-12 09:00:00 15.5 4 Nordeste 9 Nordeste 0 -- -- 77
2019-06-12 08:00:00 14.1 0 Calma 6 Norte 0 -- -- 82
2019-06-12 07:00:00 13.8 4 Norte 8 Norte 0 -- -- 80
2019-06-12 06:00:00 13 5 Oeste 8 Oeste 0 -- -- 83
2019-06-12 05:00:00 13.4 5 Oeste 10 Oeste 0 -- -- 83
2019-06-12 04:00:00 13.9 2 Sudoeste 14 Norte 0 -- -- 80
2019-06-12 03:00:00 14.2 4 Oeste 10 Oeste 0 -- -- 86
2019-06-12 02:00:00 15 4 Noroeste 16 Norte 0 -- -- 83
2019-06-12 01:00:00 16.1 12 Norte 20 Norte 0 -- -- 75
2019-06-12 00:00:00 16.4 10 Norte 25 Nordeste 0 -- -- 78
2019-06-11 23:00:00 17 14 Nordeste 25 Nordeste 0 -- -- 78
2019-06-11 22:00:00 16.9 12 Nordeste 35 Nordeste 0.3 -- -- 84
2019-06-11 21:00:00 18.5 9 Nordeste 21 Nordeste 0 -- -- 81
2019-06-11 20:00:00 19.6 4 Nordeste 32 Sudeste 0 -- -- 75
2019-06-11 19:00:00 23.7 20 Sudeste 44 Sudeste 0 -- -- 59
2019-06-11 18:00:00 25.8 24 Sudeste 45 Este 0 -- -- 54
2019-06-11 17:00:00 27.1 21 Este 41 Sudeste 0 -- -- 49
2019-06-11 16:00:00 28.1 23 Sudeste 40 Sudeste 0 -- -- 42
2019-06-11 15:00:00 29.4 13 Sudeste 33 Sudeste 0 -- -- 34
2019-06-11 14:00:00 28.5 19 Sudeste 29 Sudeste 0 -- -- 33
2019-06-11 13:00:00 28.2 0 Calma 13 Sudoeste 0 -- -- 31
2019-06-11 12:00:00 26.3 4 Oeste 14 Oeste 0 -- -- 36
2019-06-11 11:00:00 23.4 3 Noroeste 11 Oeste 0 -- -- 45
2019-06-11 10:00:00 19.6 8 Oeste 17 Noroeste 0 -- -- 61
2019-06-11 09:00:00 16.4 11 Oeste 17 Oeste 0 -- -- 71
2019-06-11 08:00:00 13.9 10 Oeste 13 Oeste 0 -- -- 80
2019-06-11 07:00:00 13.3 7 Oeste 12 Oeste 0 -- -- 83
2019-06-11 06:00:00 13.9 0 Calma 6 Oeste 0 -- -- 83
2019-06-11 05:00:00 14.3 0 Calma -- -- 0 -- -- 88
2019-06-11 04:00:00 15.3 0 Calma -- -- 0 -- -- 84
2019-06-11 03:00:00 15.9 0 Calma -- -- 0 -- -- 78
2019-06-11 02:00:00 17 0 Calma -- -- 0 -- -- 68
2019-06-11 01:00:00 18 0 Calma 19 Sudeste 0 -- -- 62
2019-06-11 00:00:00 20.3 14 Sudeste 20 Sudeste 0 -- -- 56
2019-06-10 23:00:00 21 14 Sudeste 24 Sudeste 0 -- -- 56
2019-06-10 22:00:00 22.1 13 Sudeste 28 Sudeste 0 -- -- 55
2019-06-10 21:00:00 23.7 17 Sudeste 36 Sudeste 0 -- -- 51
2019-06-10 20:00:00 25.4 20 Sudeste 40 Sudeste 0 -- -- 49
2019-06-10 19:00:00 26.1 22 Sudeste 42 Sudeste 0 -- -- 47
2019-06-10 18:00:00 28 20 Sudeste 41 Sudeste 0 -- -- 42
2019-06-10 17:00:00 31.3 8 Este 24 Sudeste 0 -- -- 29
2019-06-10 16:00:00 30.7 7 Noroeste 19 Oeste 0 -- -- 27
2019-06-10 15:00:00 30.2 3 Norte 15 Norte 0 -- -- 29
2019-06-10 14:00:00 29 3 Norte 20 Oeste 0 -- -- 31
2019-06-10 13:00:00 27.8 7 Oeste 19 Oeste 0 -- -- 34
2019-06-10 12:00:00 26.5 9 Oeste 20 Oeste 0 -- -- 37
2019-06-10 11:00:00 24.2 11 Oeste 18 Oeste 0 -- -- 41
2019-06-10 10:00:00 22.1 11 Oeste 21 Noroeste 0 -- -- 45
2019-06-10 09:00:00 20.5 10 Oeste 16 Noroeste 0 -- -- 46
2019-06-10 08:00:00 18.8 11 Oeste 17 Oeste 0 -- -- 47
2019-06-10 07:00:00 19.7 12 Oeste 18 Oeste 0 -- -- 46
2019-06-10 06:00:00 19.1 9 Oeste 17 Oeste 0 -- -- 49
2019-06-10 05:00:00 19.6 4 Oeste 13 Noroeste 0 -- -- 49
2019-06-10 04:00:00 18.5 5 Oeste 16 Oeste 0 -- -- 70
2019-06-10 03:00:00 19.2 9 Oeste 15 Oeste 0 -- -- 70
2019-06-10 02:00:00 20.1 6 Oeste 12 Oeste 0 -- -- 68
2019-06-10 01:00:00 19.3 0 Calma 8 Sudeste 0 -- -- 65
2019-06-10 00:00:00 21.3 7 Sudeste 11 Sudeste 0 -- -- 61
2019-06-09 23:00:00 22.5 6 Sudeste 19 Sudeste 0 -- -- 59
2019-06-09 22:00:00 23.2 8 Este 24 Sudeste 0 -- -- 57
2019-06-09 21:00:00 25.8 17 Sudeste 28 Sudeste 0 -- -- 47
2019-06-09 20:00:00 27.9 17 Sudeste 24 Sudeste 0 -- -- 41
2019-06-09 19:00:00 30.1 8 Sudeste 21 Sudeste 0 -- -- 36
2019-06-09 18:00:00 29.2 3 Noroeste 12 Norte 0 -- -- 36
2019-06-09 17:00:00 29.1 7 Oeste 18 Nordeste 0 -- -- 35
2019-06-09 16:00:00 29.4 5 Noroeste 18 Norte 0 -- -- 36
2019-06-09 15:00:00 28.3 5 Oeste 17 Oeste 0 -- -- 40
2019-06-09 14:00:00 26.3 4 Noroeste 19 Oeste 0 -- -- 47
2019-06-09 13:00:00 24.3 6 Oeste 12 Oeste 0 -- -- 54
2019-06-09 12:00:00 21.1 4 Oeste 15 Oeste 0 -- -- 62
2019-06-09 11:00:00 18.8 9 Oeste 14 Oeste 0 -- -- 70
2019-06-09 10:00:00 17.9 8 Oeste 14 Oeste 0 -- -- 71
2019-06-09 09:00:00 17 6 Oeste 11 Noroeste 0 -- -- 75
2019-06-09 08:00:00 16.7 7 Oeste 13 Oeste 0 -- -- 76
2019-06-09 07:00:00 16.5 3 Oeste 12 Oeste 0 -- -- 78
2019-06-09 06:00:00 16.5 3 Oeste 14 Noroeste 0 -- -- 78
2019-06-09 05:00:00 16.5 7 Oeste 10 Oeste 0 -- -- 77
2019-06-09 04:00:00 17.5 0 Calma 11 Noroeste 0 -- -- 72
2019-06-09 03:00:00 17.5 0 Calma 5 Norte 0 -- -- 71
2019-06-09 02:00:00 18.4 0 Calma 8 Este 0 -- -- 66
2019-06-09 01:00:00 19.2 3 Este 8 Nordeste 0 -- -- 65
2019-06-09 00:00:00 20.1 2 Este 6 Este 0 -- -- 62
2019-06-08 23:00:00 20.9 0 Calma 13 Sudeste 0 -- -- 59
2019-06-08 22:00:00 21.4 11 Sudeste 24 Sudeste 0 -- -- 57
2019-06-08 21:00:00 22.4 16 Sudeste 30 Sudeste 0 -- -- 56
2019-06-08 20:00:00 23.5 22 Sudeste 33 Sudeste 0 -- -- 55
2019-06-08 19:00:00 24.4 22 Sudeste 36 Sudeste 0 -- -- 54
2019-06-08 18:00:00 24.7 24 Sudeste 41 Sudeste 0 -- -- 54
2019-06-08 17:00:00 24.8 26 Sudeste 41 Sudeste 0 -- -- 52
2019-06-08 16:00:00 25.5 23 Sudeste 36 Sudeste 0 -- -- 51
2019-06-08 15:00:00 25.8 25 Sudeste 37 Sudeste 0 -- -- 50
2019-06-08 14:00:00 25.9 15 Sudeste 30 Sudeste 0 -- -- 50
2019-06-08 13:00:00 26.7 13 Este 31 Sudeste 0 -- -- 42
2019-06-08 12:00:00 25.5 3 Sudeste 15 Sudeste 0 -- -- 44
2019-06-08 11:00:00 22.8 5 Oeste 18 Oeste 0 -- -- 54
2019-06-08 10:00:00 19.3 7 Oeste 15 Oeste 0 -- -- 60
2019-06-08 09:00:00 17.3 4 Noroeste 14 Oeste 0 -- -- 65
2019-06-08 08:00:00 15.1 6 Oeste 10 Oeste 0 -- -- 68
2019-06-08 07:00:00 15.2 5 Oeste 12 Oeste 0 -- -- 67
2019-06-08 06:00:00 15.7 4 Oeste 12 Oeste 0 -- -- 66
2019-06-08 05:00:00 16.2 0 Calma 8 Oeste 0 -- -- 65
2019-06-08 04:00:00 16.3 3 Nordeste 12 Nordeste 0 -- -- 66
2019-06-08 03:00:00 16.8 0 Calma 10 Sur 0 -- -- 60
2019-06-08 02:00:00 19 6 Sudeste 15 Sudeste 0 -- -- 51
2019-06-08 01:00:00 19.9 3 Sudeste 14 Sudeste 0 -- -- 46
2019-06-08 00:00:00 21.6 10 Sudeste 16 Sudeste 0 -- -- 40
2019-06-07 23:00:00 22.7 10 Sudeste 25 Sudeste 0 -- -- 38
2019-06-07 22:00:00 24.6 15 Sudeste 26 Sudeste 0 -- -- 36
2019-06-07 21:00:00 26.2 18 Sudeste 30 Este 0 -- -- 35
2019-06-07 20:00:00 27.6 16 Sudeste 36 Sudeste 0 -- -- 35
2019-06-07 19:00:00 29.2 17 Sudeste 31 Sudeste 0 -- -- 34
2019-06-07 18:00:00 30.6 3 Este 20 Sudeste 0 -- -- 30
2019-06-07 17:00:00 31 7 Sudeste 22 Sudeste 0 -- -- 31
2019-06-07 16:00:00 30 4 Este 17 Norte 0 -- -- 31
2019-06-07 15:00:00 29.1 5 Norte 19 Norte 0 -- -- 34
2019-06-07 14:00:00 27.4 4 Noroeste 18 Noroeste 0 -- -- 36
2019-06-07 13:00:00 26.1 5 Oeste 19 Oeste 0 -- -- 39
2019-06-07 12:00:00 24.6 8 Oeste 21 Oeste 0 -- -- 41
2019-06-07 11:00:00 22.2 10 Oeste 20 Oeste 0 -- -- 46
2019-06-07 10:00:00 19.2 10 Oeste 20 Oeste 0 -- -- 61
2019-06-07 09:00:00 16.1 8 Oeste 14 Oeste 0 -- -- 84
2019-06-07 08:00:00 13.7 0 Calma 13 Oeste 0 -- -- 90
2019-06-07 07:00:00 14.1 8 Oeste 12 Oeste 0 -- -- 90
2019-06-07 06:00:00 14.2 0 Calma 8 Oeste 0 -- -- 92
2019-06-07 05:00:00 14.1 0 Calma 7 Nordeste 0 -- -- 89
2019-06-07 04:00:00 15 0 Calma 5 Nordeste 0 -- -- 88
2019-06-07 03:00:00 16.7 4 Sudeste 22 Sudeste 0 -- -- 88
2019-06-07 02:00:00 16.9 11 Sudeste 22 Sudeste 0 -- -- 88
2019-06-07 01:00:00 17.3 15 Sudeste 26 Sudeste 0 -- -- 87
2019-06-07 00:00:00 17.9 16 Sudeste 27 Sudeste 0 -- -- 86
2019-06-06 23:00:00 18.9 16 Sudeste 27 Este 0 -- -- 76
2019-06-06 22:00:00 20.3 19 Sudeste 29 Sudeste 0 -- -- 69
2019-06-06 21:00:00 22.2 14 Sudeste 31 Sudeste 0 -- -- 56
2019-06-06 20:00:00 23.8 17 Sudeste 38 Este 0 -- -- 51
2019-06-06 19:00:00 25.1 19 Este 37 Sudeste 0 -- -- 45
2019-06-06 18:00:00 25.6 17 Sudeste 38 Este 0 -- -- 42
2019-06-06 17:00:00 27 17 Sudeste 35 Sudeste 0 -- -- 40
2019-06-06 16:00:00 27.4 14 Este 35 Este 0 -- -- 39
2019-06-06 15:00:00 27.3 15 Este 36 Sudeste 0 -- -- 37
2019-06-06 14:00:00 27.2 14 Sudeste 31 Este 0 -- -- 36
2019-06-06 13:00:00 25.8 9 Sudeste 19 Sur 0 -- -- 33
2019-06-06 12:00:00 23.8 4 Oeste 17 Noroeste 0 -- -- 36
2019-06-06 11:00:00 20.8 11 Oeste 19 Oeste 0 -- -- 40
2019-06-06 10:00:00 18.4 8 Oeste 19 Oeste 0 -- -- 44
2019-06-06 09:00:00 14.7 13 Oeste 18 Oeste 0 -- -- 49
2019-06-06 08:00:00 13.3 12 Oeste 16 Oeste 0 -- -- 51
2019-06-06 07:00:00 12.5 12 Oeste 15 Oeste 0 -- -- 52
2019-06-06 06:00:00 12.9 10 Oeste 13 Oeste 0 -- -- 51
2019-06-06 05:00:00 13.7 9 Oeste 11 Oeste 0 -- -- 49
2019-06-06 04:00:00 14.3 6 Oeste 10 Oeste 0 -- -- 46
2019-06-06 03:00:00 15.3 5 Oeste 9 Oeste 0 -- -- 44
2019-06-06 02:00:00 15.5 0 Calma 8 Oeste 0 -- -- 41
2019-06-06 01:00:00 18.7 7 Oeste 12 Oeste 0 -- -- 34
2019-06-06 00:00:00 19 0 Calma 9 Sudoeste 0 -- -- 31
2019-06-05 23:00:00 20.7 3 Oeste 12 Noroeste 0 -- -- 29
2019-06-05 22:00:00 23.6 5 Noroeste 18 Oeste 0 -- -- 26
2019-06-05 21:00:00 24.5 4 Noroeste 20 Noroeste 0 -- -- 25
2019-06-05 20:00:00 25.6 6 Noroeste 24 Oeste 0 -- -- 25
2019-06-05 19:00:00 26.6 9 Noroeste 26 Oeste 0 -- -- 24
2019-06-05 18:00:00 27.6 11 Noroeste 33 Oeste 0 -- -- 24
2019-06-05 17:00:00 27.1 19 Oeste 42 Oeste 0 -- -- 24
2019-06-05 16:00:00 27.1 19 Oeste 36 Oeste 0 -- -- 25
2019-06-05 15:00:00 26.1 14 Noroeste 41 Oeste 0 -- -- 25
2019-06-05 14:00:00 25.1 26 Oeste 42 Oeste 0 -- -- 26
2019-06-05 13:00:00 24.5 13 Noroeste 46 Oeste 0 -- -- 28
2019-06-05 12:00:00 24.6 10 Noroeste 33 Noroeste 0 -- -- 35
2019-06-05 11:00:00 24.3 12 Noroeste 41 Noroeste 0 -- -- 39
2019-06-05 10:00:00 21.7 6 Oeste 14 Sudoeste 0 -- -- 58
2019-06-05 09:00:00 17.8 3 Oeste 12 Oeste 0 -- -- 77
2019-06-05 08:00:00 16.2 9 Oeste 14 Noroeste 0 -- -- 79
2019-06-05 07:00:00 16 8 Oeste 13 Oeste 0 -- -- 83
2019-06-05 06:00:00 15.5 7 Oeste 13 Oeste 0 -- -- 84
2019-06-05 05:00:00 14.8 0 Calma 5 Norte 0 -- -- 84
2019-06-05 04:00:00 15.9 0 Calma 5 Este 0 -- -- 88
2019-06-05 03:00:00 16 0 Calma 5 Este 0 -- -- 83
2019-06-05 02:00:00 17 0 Calma 6 Sudeste 0 -- -- 80
2019-06-05 01:00:00 19.4 5 Sudeste 13 Sudeste 0 -- -- 73
2019-06-05 00:00:00 20.4 6 Sudeste 28 Sudeste 0 -- -- 68
2019-06-04 23:00:00 21.9 18 Sudeste 31 Sudeste 0 -- -- 59
2019-06-04 22:00:00 23.5 15 Sudeste 27 Sudeste 0 -- -- 48
2019-06-04 21:00:00 26.1 18 Sudeste 32 Sudeste 0 -- -- 43
2019-06-04 20:00:00 28.4 17 Sudeste 38 Sudeste 0 -- -- 39
2019-06-04 19:00:00 30.9 18 Sudeste 34 Sudeste 0 -- -- 33
2019-06-04 18:00:00 32 18 Sudeste 33 Sudeste 0 -- -- 29
2019-06-04 17:00:00 31.9 15 Sudeste 32 Sudeste 0 -- -- 31
2019-06-04 16:00:00 31.5 15 Sudeste 32 Sudeste 0 -- -- 31
2019-06-04 15:00:00 29.8 16 Sudeste 33 Sudeste 0 -- -- 34
2019-06-04 14:00:00 28.7 15 Sudeste 28 Sudeste 0 -- -- 36
2019-06-04 13:00:00 27.2 13 Sudeste 22 Este 0 -- -- 37
2019-06-04 12:00:00 25.5 6 Este 15 Este 0 -- -- 39
2019-06-04 11:00:00 22.6 5 Norte 10 Norte 0 -- -- 49
2019-06-04 10:00:00 18.7 4 Oeste 9 Oeste 0 -- -- 62
2019-06-04 09:00:00 15.7 5 Oeste 10 Oeste 0 -- -- 72
2019-06-04 08:00:00 13.6 0 Calma 10 Noroeste 0 -- -- 79
2019-06-04 07:00:00 13.1 0 Calma 9 Oeste 0 -- -- 81
2019-06-04 06:00:00 14.7 6 Oeste 8 Oeste 0 -- -- 86
2019-06-04 05:00:00 14.8 0 Calma 2 Este 0 -- -- 88
2019-06-04 04:00:00 15.3 0 Calma 5 Este 0 -- -- 88
2019-06-04 03:00:00 15.9 2 Este 8 Este 0 -- -- 78
2019-06-04 02:00:00 17.4 0 Calma 5 Sudeste 0 -- -- 60
2019-06-04 01:00:00 18.7 0 Calma 8 Sudeste 0 -- -- 54
2019-06-04 00:00:00 20.9 3 Sur 17 Sudeste 0 -- -- 47
2019-06-03 23:00:00 21.9 10 Sudeste 24 Sudeste 0 -- -- 45
2019-06-03 22:00:00 23.4 15 Sudeste 26 Sudeste 0 -- -- 40
2019-06-03 21:00:00 25.6 13 Sudeste 29 Sudeste 0 -- -- 39
2019-06-03 20:00:00 27.3 15 Este 34 Sudeste 0 -- -- 36
2019-06-03 19:00:00 28.7 18 Sudeste 35 Sudeste 0 -- -- 35
2019-06-03 18:00:00 30.3 16 Sudeste 32 Sudeste 0 -- -- 35
2019-06-03 17:00:00 30.5 18 Sudeste 31 Sudeste 0 -- -- 34
2019-06-03 16:00:00 30.3 16 Sudeste 31 Sudeste 0 -- -- 30
2019-06-03 15:00:00 29.9 17 Sudeste 32 Sudeste 0 -- -- 30
2019-06-03 14:00:00 28.4 14 Sudeste 31 Este 0 -- -- 31
2019-06-03 13:00:00 26.8 12 Sudeste 24 Este 0 -- -- 33
2019-06-03 12:00:00 25.2 10 Sudeste 19 Sudeste 0 -- -- 37
2019-06-03 11:00:00 22 3 Noroeste 11 Oeste 0 -- -- 46
2019-06-03 10:00:00 18.7 9 Oeste 14 Oeste 0 -- -- 58
2019-06-03 09:00:00 15.4 5 Noroeste 11 Oeste 0 -- -- 70
2019-06-03 08:00:00 12.9 8 Oeste 12 Oeste 0 -- -- 77
2019-06-03 07:00:00 12.3 0 Calma 12 Oeste 0 -- -- 77
2019-06-03 06:00:00 13.6 4 Oeste 8 Oeste 0 -- -- 75
2019-06-03 05:00:00 13.4 0 Calma 8 Nordeste 0 -- -- 71
2019-06-03 04:00:00 13.9 0 Calma 8 Este 0 -- -- 75
2019-06-03 03:00:00 15.5 3 Este 7 Este 0 -- -- 75
2019-06-03 02:00:00 17 5 Este 14 Sudeste 0 -- -- 70
2019-06-03 01:00:00 16.9 4 Este 9 Este 0 -- -- 59
2019-06-03 00:00:00 19.8 4 Este 15 Sur 0 -- -- 49
2019-06-02 23:00:00 20.5 12 Sudeste 24 Sudeste 0 -- -- 44
2019-06-02 22:00:00 21.9 16 Sudeste 29 Este 0 -- -- 39
2019-06-02 21:00:00 24 17 Sudeste 31 Sudeste 0 -- -- 36
2019-06-02 20:00:00 26.1 18 Sudeste 35 Sudeste 0 -- -- 30
2019-06-02 19:00:00 28.2 17 Sudeste 31 Sudeste 0 -- -- 28
2019-06-02 18:00:00 29.3 16 Sudeste 33 Este 0 -- -- 26
2019-06-02 17:00:00 29.6 13 Sudeste 33 Sudeste 0 -- -- 26
2019-06-02 16:00:00 29.5 13 Sudeste 26 Sudeste 0 -- -- 26
2019-06-02 15:00:00 28.4 12 Este 24 Sudeste 0 -- -- 29
2019-06-02 14:00:00 27.5 9 Sudeste 21 Sudeste 0 -- -- 29
2019-06-02 13:00:00 26.7 5 Este 17 Sudeste 0 -- -- 33
2019-06-02 12:00:00 24.3 5 Sudeste 14 Sudeste 0 -- -- 36
2019-06-02 11:00:00 20.9 4 Noroeste 13 Oeste 0 -- -- 44
2019-06-02 10:00:00 17.1 10 Oeste 17 Oeste 0 -- -- 52
2019-06-02 09:00:00 14.1 9 Oeste 12 Oeste 0 -- -- 62
2019-06-02 08:00:00 11.7 5 Oeste 9 Oeste 0 -- -- 68
2019-06-02 07:00:00 11.8 4 Oeste 9 Oeste 0 -- -- 67
2019-06-02 06:00:00 12.5 3 Oeste 10 Oeste 0 -- -- 65
2019-06-02 05:00:00 12.7 0 Calma 5 Oeste 0 -- -- 62
2019-06-02 04:00:00 12.7 0 Calma 5 Nordeste 0 -- -- 57
2019-06-02 03:00:00 14.4 0 Calma 6 Este 0 -- -- 55
2019-06-02 02:00:00 14.7 0 Calma 5 Este 0 -- -- 55
2019-06-02 01:00:00 16.3 3 Este 15 Sudeste 0 -- -- 46
2019-06-02 00:00:00 19.1 12 Sudeste 22 Sudeste 0 -- -- 39
2019-06-01 23:00:00 19.5 13 Sudeste 23 Sudeste 0 -- -- 37
2019-06-01 22:00:00 20.9 15 Sudeste 26 Sudeste 0 -- -- 35
2019-06-01 21:00:00 23 13 Sudeste 27 Este 0 -- -- 32
2019-06-01 20:00:00 24.9 14 Sudeste 36 Sudeste 0 -- -- 30
2019-06-01 19:00:00 26.4 21 Sudeste 35 Sudeste 0 -- -- 29
2019-06-01 18:00:00 27.3 18 Sudeste 29 Sudeste 0 -- -- 29
2019-06-01 17:00:00 27.7 14 Sudeste 31 Sudeste 0 -- -- 29
2019-06-01 16:00:00 27.6 14 Sudeste 28 Sudeste 0 -- -- 28
2019-06-01 15:00:00 27.3 11 Sudeste 28 Este 0 -- -- 29
2019-06-01 14:00:00 25.9 10 Sudeste 23 Sudeste 0 -- -- 29
2019-06-01 13:00:00 24.9 8 Sudeste 21 Sudeste 0 -- -- 31
2019-06-01 12:00:00 23.4 5 Sudeste 17 Este 0 -- -- 35
2019-06-01 11:00:00 20.1 5 Oeste 13 Oeste 0 -- -- 52
2019-06-01 10:00:00 17 7 Oeste 13 Oeste 0 -- -- 62
2019-06-01 09:00:00 13.7 10 Oeste 14 Oeste 0 -- -- 76
2019-06-01 08:00:00 12.1 0 Calma 10 Oeste 0 -- -- 81
2019-06-01 07:00:00 11.8 6 Oeste 10 Oeste 0 -- -- 83
2019-06-01 06:00:00 11.9 3 Oeste 6 Oeste 0 -- -- 83
2019-06-01 05:00:00 12.1 0 Calma -- -- 0 -- -- 79
2019-06-01 04:00:00 13.4 0 Calma 3 Este 0 -- -- 78
2019-06-01 03:00:00 14.3 0 Calma -- -- 0 -- -- 76
2019-06-01 02:00:00 15.1 0 Calma 3 Nordeste 0 -- -- 72
2019-06-01 01:00:00 16.2 0 Calma 5 Este 0 -- -- 66
2019-06-01 00:00:00 18.2 4 Sur 17 Sudeste 0 -- -- 56
2019-05-31 23:00:00 18.6 10 Sudeste 27 Este 0 -- -- 52
2019-05-31 22:00:00 19.7 18 Sudeste 28 Sudeste 0 -- -- 47
2019-05-31 21:00:00 21.6 17 Sudeste 32 Este 0 -- -- 40
2019-05-31 20:00:00 23.3 17 Sudeste 32 Sudeste 0 -- -- 40
2019-05-31 19:00:00 24.5 16 Sudeste 32 Sudeste 0 -- -- 39
2019-05-31 18:00:00 25.4 15 Sudeste 32 Sudeste 0 -- -- 37
2019-05-31 17:00:00 26.6 15 Este 31 Sudeste 0 -- -- 36
2019-05-31 16:00:00 26.3 17 Sudeste 30 Sudeste 0 -- -- 35
2019-05-31 15:00:00 26.4 14 Sudeste 28 Sudeste 0 -- -- 35
2019-05-31 14:00:00 25.5 14 Sudeste 30 Sudeste 0 -- -- 35
2019-05-31 13:00:00 24.7 12 Sudeste 26 Sudeste 0 -- -- 36
2019-05-31 12:00:00 23.5 8 Sudeste 19 Sudeste 0 -- -- 40
2019-05-31 11:00:00 19.5 7 Oeste 14 Oeste 0 -- -- 60
2019-05-31 10:00:00 16.3 10 Oeste 17 Oeste 0 -- -- 73
2019-05-31 09:00:00 13.9 8 Oeste 14 Oeste 0 -- -- 81
2019-05-31 08:00:00 11.9 9 Oeste 13 Oeste 0 -- -- 90
2019-05-31 07:00:00 11.9 10 Oeste 13 Oeste 0 -- -- 90
2019-05-31 06:00:00 12 8 Oeste 10 Oeste 0 -- -- 90
2019-05-31 05:00:00 13.1 0 Calma 9 Nordeste 0 -- -- 85
2019-05-31 04:00:00 12.5 0 Calma 6 Este 0 -- -- 88
2019-05-31 03:00:00 13.8 0 Calma 10 Sudeste 0 -- -- 81
2019-05-31 02:00:00 15.3 4 Este 11 Sudeste 0 -- -- 78
2019-05-31 01:00:00 15.9 8 Sudeste 19 Este 0 -- -- 75
2019-05-31 00:00:00 16.6 14 Sudeste 24 Sudeste 0 -- -- 70
2019-05-30 23:00:00 17.5 13 Sudeste 24 Sudeste 0 -- -- 61
2019-05-30 22:00:00 18.7 13 Sudeste 30 Sudeste 0 -- -- 51
2019-05-30 21:00:00 20.9 15 Sudeste 32 Sudeste 0 -- -- 46
2019-05-30 20:00:00 22.9 15 Sudeste 33 Este 0 -- -- 41
2019-05-30 19:00:00 24.6 13 Este 28 Sudeste 0 -- -- 37
2019-05-30 18:00:00 25.2 17 Sudeste 30 Sudeste 0 -- -- 36
2019-05-30 17:00:00 25.4 16 Sudeste 30 Sudeste 0 -- -- 39
2019-05-30 16:00:00 24.7 15 Sudeste 31 Sudeste 0 -- -- 40
2019-05-30 15:00:00 24.8 12 Sudeste 26 Este 0 -- -- 41
2019-05-30 14:00:00 23.1 14 Sudeste 26 Sudeste 0 -- -- 45
2019-05-30 13:00:00 22.9 9 Sudeste 21 Sudeste 0 -- -- 42
2019-05-30 12:00:00 21.6 6 Sudeste 16 Sudeste 0 -- -- 47
2019-05-30 11:00:00 19 2 Norte 9 Noroeste 0 -- -- 58
2019-05-30 10:00:00 15.5 7 Oeste 13 Noroeste 0 -- -- 65
2019-05-30 09:00:00 13.2 8 Oeste 12 Noroeste 0 -- -- 72
2019-05-30 08:00:00 11 4 Oeste 8 Oeste 0 -- -- 81
2019-05-30 07:00:00 10.7 5 Oeste 7 Oeste 0 -- -- 81
2019-05-30 06:00:00 11.2 3 Oeste 6 Oeste 0 -- -- 80
2019-05-30 05:00:00 11.3 0 Calma 5 Nordeste 0 -- -- 76
2019-05-30 04:00:00 12.4 0 Calma 4 Sudeste 0 -- -- 74
2019-05-30 03:00:00 12.8 0 Calma 6 Este 0 -- -- 77
2019-05-30 02:00:00 14 3 Este 13 Sudeste 0 -- -- 70
2019-05-30 01:00:00 15.4 8 Sudeste 15 Sur 0 -- -- 65
2019-05-30 00:00:00 15.9 13 Sudeste 24 Sudeste 0 -- -- 54
2019-05-29 23:00:00 16.6 13 Sudeste 28 Sudeste 0 -- -- 50
2019-05-29 22:00:00 17.9 15 Sudeste 28 Este 0 -- -- 49
2019-05-29 21:00:00 19.7 14 Sudeste 29 Sudeste 0 -- -- 44
2019-05-29 20:00:00 20.7 15 Sudeste 31 Sudeste 0 -- -- 42
2019-05-29 19:00:00 21.2 23 Sudeste 36 Sudeste 0 -- -- 42
2019-05-29 18:00:00 22.2 20 Sudeste 38 Sudeste 0 -- -- 42
2019-05-29 17:00:00 23.3 20 Sudeste 35 Sudeste 0 -- -- 42
2019-05-29 16:00:00 24.8 16 Sudeste 31 Sudeste 0 -- -- 39
2019-05-29 15:00:00 25 6 Oeste 20 Oeste 0 -- -- 35
2019-05-29 14:00:00 23.3 3 Oeste 17 Sudeste 0 -- -- 41
2019-05-29 13:00:00 22.2 7 Sudeste 15 Sudeste 0 -- -- 49
2019-05-29 12:00:00 20.3 7 Sudeste 15 Sur 0 -- -- 54
2019-05-29 11:00:00 19.5 7 Sudeste 19 Sudeste 0 -- -- 56
2019-05-29 10:00:00 17.9 8 Sudeste 17 Sudeste 0 -- -- 61
2019-05-29 09:00:00 16 5 Sur 8 Sur 0 -- -- 82
2019-05-29 08:00:00 15.2 0 Calma 5 Este 0 -- -- 88
2019-05-29 07:00:00 15.3 0 Calma -- -- 0 -- -- 90
2019-05-29 06:00:00 15.1 0 Calma -- -- 0 -- -- 92
2019-05-29 05:00:00 15.2 0 Calma 6 Oeste 0 -- -- 90
2019-05-29 04:00:00 14.8 0 Calma -- -- 0 -- -- 90
2019-05-29 03:00:00 15 0 Calma 7 Este 0 -- -- 88
2019-05-29 02:00:00 16.6 4 Sudeste 19 Sudeste 0 -- -- 86
2019-05-29 01:00:00 16.9 11 Sudeste 19 Sudeste 0 -- -- 84
2019-05-29 00:00:00 17.6 13 Sudeste 22 Sur 0 -- -- 80
2019-05-28 23:00:00 18.3 12 Sudeste 27 Sudeste 0 -- -- 80
2019-05-28 22:00:00 19.3 20 Sudeste 32 Sudeste 0 -- -- 75
2019-05-28 21:00:00 21 20 Sudeste 32 Sudeste 0 -- -- 65
2019-05-28 20:00:00 23.2 17 Sudeste 35 Sudeste 0 -- -- 56
2019-05-28 19:00:00 24.6 18 Sudeste 35 Sudeste 0 -- -- 50
2019-05-28 18:00:00 25.8 19 Sudeste 36 Este 0 -- -- 47
2019-05-28 17:00:00 26.9 17 Sudeste 36 Sudeste 0 -- -- 44
2019-05-28 16:00:00 27.3 21 Sudeste 32 Sudeste 0 -- -- 43
2019-05-28 15:00:00 27.9 10 Sudeste 22 Sudeste 0 -- -- 41
2019-05-28 14:00:00 27.2 6 Sudeste 19 Sudeste 0 -- -- 39
2019-05-28 13:00:00 26 3 Este 10 Este 0 -- -- 41
2019-05-28 12:00:00 24.6 0 Calma 7 Noroeste 0 -- -- 44
2019-05-28 11:00:00 22.2 2 Noroeste 9 Oeste 0 -- -- 57
2019-05-28 10:00:00 19.7 0 Calma 6 Norte 0 -- -- 73
2019-05-28 09:00:00 17 0 Calma 8 Oeste 0 -- -- 84
2019-05-28 08:00:00 15.6 3 Oeste 7 Oeste 0 -- -- 90
2019-05-28 07:00:00 14.2 0 Calma -- -- 0 -- -- 92
2019-05-28 06:00:00 14.8 0 Calma -- -- 0 -- -- 90
2019-05-28 05:00:00 16.4 0 Calma 10 Sudeste 0 -- -- 90
2019-05-28 04:00:00 16.3 0 Calma 9 Sudeste 0 -- -- 86
2019-05-28 03:00:00 17.3 0 Calma 11 Sudeste 0 -- -- 78
2019-05-28 02:00:00 17.8 4 Este 9 Sudeste 0 -- -- 75
2019-05-28 01:00:00 19.2 0 Calma 9 Este 0 -- -- 66
2019-05-28 00:00:00 21.1 5 Sudeste 20 Sudeste 0 -- -- 56
2019-05-27 23:00:00 22.2 10 Sur 17 Sudeste 0 -- -- 51
2019-05-27 22:00:00 23 15 Sudeste 23 Sudeste 0 -- -- 49
2019-05-27 21:00:00 24 13 Sudeste 35 Sudeste 0 -- -- 47
2019-05-27 20:00:00 25.9 23 Sudeste 41 Sudeste 0 -- -- 44
2019-05-27 19:00:00 27 20 Este 39 Sudeste 0 -- -- 41
2019-05-27 18:00:00 31.9 5 Nordeste 19 Oeste 0 -- -- 24
2019-05-27 17:00:00 31.7 2 Norte 15 Nordeste 0 -- -- 26
2019-05-27 16:00:00 30.4 5 Oeste 15 Oeste 0 -- -- 29
2019-05-27 15:00:00 28.7 3 Noroeste 16 Oeste 0 -- -- 34
2019-05-27 14:00:00 27.5 4 Noroeste 19 Oeste 0 -- -- 37
2019-05-27 13:00:00 25.1 7 Oeste 16 Oeste 0 -- -- 41
2019-05-27 12:00:00 22.4 8 Oeste 17 Oeste 0 -- -- 54
2019-05-27 11:00:00 20.5 9 Oeste 18 Noroeste 0 -- -- 58
2019-05-27 10:00:00 17.8 6 Noroeste 16 Oeste 0 -- -- 63
2019-05-27 09:00:00 14.9 8 Oeste 15 Oeste 0 -- -- 77
2019-05-27 08:00:00 13.3 10 Oeste 14 Oeste 0 -- -- 85
2019-05-27 07:00:00 12.9 9 Oeste 13 Oeste 0 -- -- 88
2019-05-27 06:00:00 13.1 3 Oeste 6 Oeste 0 -- -- 89
2019-05-27 05:00:00 13.4 2 Oeste 5 Este 0 -- -- 88
2019-05-27 04:00:00 13.9 0 Calma 5 Sudeste 0 -- -- 84
2019-05-27 03:00:00 15.6 0 Calma 6 Sudeste 0 -- -- 80
2019-05-27 02:00:00 16.2 2 Sudeste 7 Sudeste 0 -- -- 78
2019-05-27 01:00:00 16.8 2 Sudeste 13 Sudeste 0 -- -- 73
2019-05-27 00:00:00 18 10 Sudeste 19 Sudeste 0 -- -- 57
2019-05-26 23:00:00 19.6 10 Sudeste 28 Sudeste 0 -- -- 51
2019-05-26 22:00:00 20.8 10 Sudeste 25 Este 0 -- -- 46
2019-05-26 21:00:00 22.7 13 Sudeste 27 Este 0 -- -- 42
2019-05-26 20:00:00 24.1 16 Sudeste 28 Sudeste 0 -- -- 40
2019-05-26 19:00:00 25.1 18 Sudeste 30 Sudeste 0 -- -- 39
2019-05-26 18:00:00 26.1 16 Sudeste 31 Sudeste 0 -- -- 36
2019-05-26 17:00:00 26.8 10 Sur 26 Sudeste 0 -- -- 35
2019-05-26 16:00:00 26.8 8 Sudeste 24 Sudeste 0 -- -- 36
2019-05-26 15:00:00 26.6 12 Sudeste 26 Sudeste 0 -- -- 37
2019-05-26 14:00:00 25.4 12 Sudeste 29 Este 0 -- -- 41
2019-05-26 13:00:00 23.9 13 Sudeste 26 Sudeste 0 -- -- 44
2019-05-26 12:00:00 22.8 10 Este 19 Sudeste 0 -- -- 49
2019-05-26 11:00:00 19.1 3 Nordeste 9 Norte 0 -- -- 62
2019-05-26 10:00:00 16.4 6 Oeste 10 Noroeste 0 -- -- 76
2019-05-26 09:00:00 13.3 8 Oeste 13 Oeste 0 -- -- 87
2019-05-26 08:00:00 11.8 10 Oeste 13 Oeste 0 -- -- 94
2019-05-26 07:00:00 11.5 5 Oeste 8 Oeste 0 -- -- 94
2019-05-26 06:00:00 12.2 0 Calma 9 Oeste 0 -- -- 93
2019-05-26 05:00:00 12.9 6 Oeste 8 Oeste 0 -- -- 93
2019-05-26 04:00:00 12.9 0 Calma 5 Este 0 -- -- 90
2019-05-26 03:00:00 13.6 0 Calma 12 Sudeste 0 -- -- 88
2019-05-26 02:00:00 14.9 4 Sudeste 15 Sudeste 0 -- -- 86
2019-05-26 01:00:00 15.3 6 Sudeste 25 Sudeste 0 -- -- 83
2019-05-26 00:00:00 16.2 14 Sudeste 26 Sudeste 0 -- -- 77
2019-05-25 23:00:00 17.2 12 Sudeste 21 Sudeste 0 -- -- 70
2019-05-25 22:00:00 18.8 8 Sudeste 17 Sudeste 0 -- -- 61
2019-05-25 21:00:00 20.9 8 Sudeste 22 Sudeste 0 -- -- 52
2019-05-25 20:00:00 22.6 7 Este 16 Este 0 -- -- 50
2019-05-25 19:00:00 21.2 7 Este 17 Sudeste 0 -- -- 55
2019-05-25 18:00:00 21.4 7 Este 17 Sudeste 0 -- -- 54
2019-05-25 17:00:00 21.3 7 Sudeste 20 Sudeste 0 -- -- 52
2019-05-25 16:00:00 21.5 7 Este 22 Este 0 -- -- 52
2019-05-25 15:00:00 22 4 Sudeste 19 Este 0 -- -- 51
2019-05-25 14:00:00 21.6 3 Noroeste 15 Oeste 0 -- -- 52
2019-05-25 13:00:00 20.5 8 Oeste 18 Oeste 0 -- -- 56
2019-05-25 12:00:00 20.9 8 Oeste 21 Oeste 0 -- -- 57
2019-05-25 11:00:00 18.5 11 Oeste 23 Oeste 0 -- -- 63
2019-05-25 10:00:00 16.7 8 Oeste 22 Oeste 0 -- -- 70
2019-05-25 09:00:00 14.8 7 Oeste 18 Oeste 0 -- -- 75
2019-05-25 08:00:00 11.6 6 Oeste 13 Oeste 0 -- -- 84
2019-05-25 07:00:00 12.1 8 Oeste 14 Oeste 0 -- -- 83
2019-05-25 06:00:00 12.1 3 Oeste 12 Noroeste 0 -- -- 83
2019-05-25 05:00:00 12.3 0 Calma 9 Oeste 0 -- -- 85
2019-05-25 04:00:00 12.8 5 Oeste 9 Oeste 0 -- -- 83
2019-05-25 03:00:00 13.4 6 Oeste 13 Noroeste 0 -- -- 82
2019-05-25 02:00:00 13.5 10 Oeste 14 Oeste 0 -- -- 81
2019-05-25 01:00:00 13.9 7 Oeste 14 Oeste 0 -- -- 82
2019-05-25 00:00:00 13.7 10 Oeste 13 Oeste 0 -- -- 82
2019-05-24 23:00:00 14 4 Oeste 9 Oeste 0 -- -- 78
2019-05-24 22:00:00 14.4 5 Oeste 11 Sur 0 -- -- 78
2019-05-24 21:00:00 15.4 8 Sudeste 25 Sudeste 0.1 -- -- 63
2019-05-24 20:00:00 15 14 Sudeste 22 Sudeste 2.7 -- -- 75
2019-05-24 19:00:00 17.8 17 Sudeste 40 Sudeste 0.1 -- -- 52
2019-05-24 18:00:00 20.8 28 Sudeste 44 Sudeste 0 -- -- 42
2019-05-24 17:00:00 23 24 Sudeste 41 Sudeste 0 -- -- 46
2019-05-24 16:00:00 22.8 15 Sudeste 39 Sudeste 0 -- -- 50
2019-05-24 15:00:00 22.8 21 Sudeste 30 Sudeste 0 -- -- 56
2019-05-24 14:00:00 21.9 15 Sudeste 26 Sudeste 0 -- -- 59
2019-05-24 13:00:00 21.8 10 Sudeste 21 Sudeste 0 -- -- 47
2019-05-24 12:00:00 20.3 0 Calma 8 Sudeste 0 -- -- 56
2019-05-24 11:00:00 18.8 0 Calma 11 Oeste 0 -- -- 63
2019-05-24 10:00:00 16.2 6 Oeste 9 Oeste 0 -- -- 74
2019-05-24 09:00:00 15.3 4 Oeste 10 Noroeste 0 -- -- 76
2019-05-24 08:00:00 14.8 0 Calma 10 Oeste 0 -- -- 78
2019-05-24 07:00:00 15.7 6 Oeste 9 Oeste 0 -- -- 73
2019-05-24 06:00:00 14.5 0 Calma 4 Norte 0 -- -- 73
2019-05-24 05:00:00 15 0 Calma 9 Sudeste 0 -- -- 72
2019-05-24 04:00:00 16 0 Calma 6 Sudeste 0 -- -- 68
2019-05-24 03:00:00 18 4 Este 16 Sudeste 0 -- -- 64
2019-05-24 02:00:00 19.4 9 Sudeste 18 Sudeste 0 -- -- 57
2019-05-24 01:00:00 19.2 6 Sudeste 16 Sudeste 0 -- -- 62
2019-05-24 00:00:00 19.8 9 Sudeste 22 Sudeste 0 -- -- 61
2019-05-23 23:00:00 20.2 17 Sudeste 26 Sudeste 0 -- -- 60
2019-05-23 22:00:00 21.8 17 Sudeste 26 Sudeste 0 -- -- 51
2019-05-23 21:00:00 24.1 16 Sudeste 33 Sudeste 0 -- -- 41
2019-05-23 20:00:00 26.4 19 Sudeste 33 Sudeste 0 -- -- 35
2019-05-23 19:00:00 28.7 19 Sudeste 38 Sudeste 0 -- -- 30
2019-05-23 18:00:00 29.5 19 Sudeste 30 Sudeste 0 -- -- 30
2019-05-23 17:00:00 30.4 12 Sudeste 29 Sudeste 0 -- -- 29
2019-05-23 16:00:00 29.3 12 Sudeste 28 Sudeste 0 -- -- 31
2019-05-23 15:00:00 28.3 14 Sudeste 26 Sudeste 0 -- -- 33
2019-05-23 14:00:00 26.8 11 Este 21 Sudeste 0 -- -- 34
2019-05-23 13:00:00 25.4 9 Sudeste 17 Sudeste 0 -- -- 36
2019-05-23 12:00:00 23.2 3 Este 9 Sudeste 0 -- -- 40
2019-05-23 11:00:00 19.5 0 Calma 11 Noroeste 0 -- -- 55
2019-05-23 10:00:00 17.1 2 Noroeste 10 Oeste 0 -- -- 67
2019-05-23 09:00:00 14.6 4 Noroeste 9 Oeste 0 -- -- 77
2019-05-23 08:00:00 12.7 3 Oeste 7 Oeste 0 -- -- 83
2019-05-23 07:00:00 11.3 0 Calma 4 Nordeste 0 -- -- 81
2019-05-23 06:00:00 12.6 0 Calma 11 Este 0 -- -- 79
2019-05-23 05:00:00 12.6 4 Este 10 Este 0 -- -- 82
2019-05-23 04:00:00 14.1 5 Este 16 Sudeste 0 -- -- 77
2019-05-23 03:00:00 15 6 Este 19 Sudeste 0 -- -- 73
2019-05-23 02:00:00 16.6 5 Este 10 Sudeste 0 -- -- 64
2019-05-23 01:00:00 16.9 0 Calma 9 Sudeste 0 -- -- 65
2019-05-23 00:00:00 18 7 Sudeste 21 Sudeste 0 -- -- 57
2019-05-22 23:00:00 18.7 13 Sudeste 23 Sudeste 0 -- -- 51
2019-05-22 22:00:00 19.9 13 Sudeste 26 Sudeste 0 -- -- 46
2019-05-22 21:00:00 22 17 Sudeste 37 Sudeste 0 -- -- 41
2019-05-22 20:00:00 23.7 18 Sudeste 36 Nordeste 0 -- -- 39
2019-05-22 19:00:00 25.2 21 Sudeste 37 Sudeste 0 -- -- 37
2019-05-22 18:00:00 26.4 17 Sudeste 34 Sudeste 0 -- -- 35
2019-05-22 17:00:00 26.8 15 Sudeste 30 Sudeste 0 -- -- 30
2019-05-22 16:00:00 26.7 13 Este 26 Este 0 -- -- 33
2019-05-22 15:00:00 25.3 13 Sudeste 27 Sudeste 0 -- -- 35
2019-05-22 14:00:00 24.3 13 Sudeste 23 Este 0 -- -- 35
2019-05-22 13:00:00 23.3 9 Este 19 Este 0 -- -- 39
2019-05-22 12:00:00 21.2 6 Sudeste 12 Sudeste 0 -- -- 49
2019-05-22 11:00:00 17.5 4 Oeste 10 Oeste 0 -- -- 71
2019-05-22 10:00:00 15 5 Oeste 11 Oeste 0 -- -- 79
2019-05-22 09:00:00 12.7 7 Oeste 11 Oeste 0 -- -- 91
2019-05-22 08:00:00 11.1 6 Oeste 10 Oeste 0 -- -- 95
2019-05-22 07:00:00 11.4 0 Calma 8 Oeste 0 -- -- 94
2019-05-22 06:00:00 11.7 0 Calma -- -- 0 -- -- 95
2019-05-22 05:00:00 11.8 0 Calma 8 Oeste 0 -- -- 94
2019-05-22 04:00:00 11.9 0 Calma -- -- 0 -- -- 92
2019-05-22 03:00:00 13.3 0 Calma 4 Nordeste 0 -- -- 92
2019-05-22 02:00:00 13.3 0 Calma 6 Nordeste 0 -- -- 92
2019-05-22 01:00:00 13.9 0 Calma 7 Este 0 -- -- 89
2019-05-22 00:00:00 14.9 3 Este 12 Sudeste 0 -- -- 85
2019-05-21 23:00:00 15.5 8 Sur 12 Este 0 -- -- 85
2019-05-21 22:00:00 16.1 0 Calma 7 Nordeste 0 -- -- 82
2019-05-21 21:00:00 17.4 0 Calma 16 Sur 0 -- -- 73
2019-05-21 20:00:00 17.3 9 Sudeste 19 Sudeste 0.2 -- -- 73
2019-05-21 19:00:00 14.4 8 Este 37 Sudeste 5.1 -- -- 87
2019-05-21 18:00:00 17.8 11 Este 39 Sudeste 0.9 -- -- 73
2019-05-21 17:00:00 22.3 23 Sudeste 39 Sudeste 0 -- -- 50
2019-05-21 16:00:00 24.8 15 Sudeste 30 Sudeste 0 -- -- 44
2019-05-21 15:00:00 24.6 14 Este 31 Sudeste 0 -- -- 45
2019-05-21 14:00:00 23.3 14 Sudeste 28 Sudeste 0 -- -- 47
2019-05-21 13:00:00 23.2 10 Este 20 Este 0 -- -- 46
2019-05-21 12:00:00 20.6 6 Sudeste 13 Sudeste 0 -- -- 59
2019-05-21 11:00:00 18.7 0 Calma 10 Sudeste 0 -- -- 62
2019-05-21 10:00:00 17 4 Sudeste 16 Este 0 -- -- 84
2019-05-21 09:00:00 16.3 11 Sudeste 17 Sudeste 0 -- -- 88
2019-05-21 08:00:00 14.7 0 Calma 8 Este 0 -- -- 93
2019-05-21 07:00:00 14.4 0 Calma -- -- 0 -- -- 94
2019-05-21 06:00:00 15.1 0 Calma -- -- 0 -- -- 92
2019-05-21 05:00:00 15.5 0 Calma 3 Sudeste 0 -- -- 90
2019-05-21 04:00:00 15.6 0 Calma -- -- 0 -- -- 89
2019-05-21 03:00:00 16 0 Calma 9 Este 0 -- -- 88
2019-05-21 02:00:00 16.2 6 Sudeste 15 Sudeste 0 -- -- 87
2019-05-21 01:00:00 16.4 10 Sudeste 17 Sudeste 0 -- -- 87
2019-05-21 00:00:00 17 10 Sudeste 18 Sudeste 0 -- -- 82